createdAt,value
2019-03-11T00:02:22.577Z,97826.25
2019-03-11T00:04:56.018Z,97716.48
2019-03-11T00:07:29.515Z,97758.44
2019-03-11T00:10:03.334Z,97771.38
2019-03-11T00:12:37.694Z,97830.47
2019-03-11T00:15:10.901Z,97792.96
2019-03-11T00:17:45.017Z,97825.53
2019-03-11T00:20:18.584Z,97854.94
2019-03-11T00:22:52.765Z,97843.17
2019-03-11T00:25:26.395Z,97834.97
2019-03-11T00:28:00.403Z,97871.59
2019-03-11T00:30:34.286Z,97923.78
2019-03-11T00:33:08.168Z,97904.25
2019-03-11T00:35:42.087Z,97944.42
2019-03-11T00:38:15.590Z,98009.96
2019-03-11T00:40:48.977Z,98048.52
2019-03-11T00:43:22.891Z,98079.41
2019-03-11T00:45:56.385Z,98139.30
2019-03-11T00:48:30.299Z,98148.61
2019-03-11T00:51:03.288Z,98165.47
2019-03-11T00:53:36.538Z,98198.81
2019-03-11T00:56:10.101Z,98235.91
2019-03-11T00:58:44.198Z,98247.45
2019-03-11T01:01:17.814Z,98275.39
2019-03-11T01:03:50.802Z,98279.06
2019-03-11T01:06:24.686Z,98300.83
2019-03-11T01:08:58.476Z,98337.91
2019-03-11T01:11:32.387Z,98372.80
2019-03-11T01:14:06.009Z,98348.56
2019-03-11T01:16:40.033Z,98401.17
2019-03-11T01:19:14.025Z,98397.42
2019-03-11T01:21:47.015Z,98411.27
2019-03-11T01:24:20.631Z,98446.30
2019-03-11T01:26:54.629Z,98457.39
2019-03-11T01:29:28.126Z,98480.66
2019-03-11T01:32:02.024Z,98500.45
2019-03-11T01:34:34.885Z,98507.07
2019-03-11T01:37:08.554Z,98524.69
2019-03-11T01:39:42.645Z,98536.86
2019-03-11T01:42:16.404Z,98540.42
2019-03-11T01:44:49.994Z,98562.19
2019-03-11T01:47:24.078Z,98579.81
2019-03-11T01:49:58.029Z,98569.88
2019-03-11T01:52:32.073Z,98583.70
2019-03-11T01:55:05.230Z,98593.24
2019-03-11T01:57:39.175Z,98600.91
2019-03-11T02:00:14.789Z,98615.55
2019-03-11T02:02:48.396Z,98617.22
2019-03-11T02:05:21.949Z,98633.73
2019-03-11T02:07:55.530Z,98627.42
2019-03-11T02:10:30.003Z,98634.08
2019-03-11T02:13:03.569Z,98652.11
2019-03-11T02:15:37.570Z,98668.72
2019-03-11T02:18:11.265Z,98668.95
2019-03-11T02:20:44.251Z,98654.97
2019-03-11T02:23:17.877Z,98665.84
2019-03-11T02:25:52.493Z,98657.59
2019-03-11T02:28:26.500Z,98681.91
2019-03-11T02:31:00.524Z,98677.31
2019-03-11T02:33:34.517Z,98688.33
2019-03-11T02:36:08.024Z,98697.16
2019-03-11T02:38:43.872Z,98710.06
2019-03-11T02:41:17.453Z,98745.83
2019-03-11T02:43:51.382Z,98734.31
2019-03-11T02:46:25.411Z,98750.39
2019-03-11T02:48:58.917Z,98740.14
2019-03-11T02:51:32.389Z,98750.13
2019-03-11T02:54:05.987Z,98741.09
2019-03-11T02:56:39.902Z,98756.16
2019-03-11T02:59:14.435Z,98777.92
2019-03-11T03:02:12.255Z,98779.38
2019-03-11T03:04:48.821Z,98834.22
2019-03-11T03:07:22.426Z,98781.10
2019-03-11T03:09:56.496Z,98774.72
2019-03-11T03:12:30.784Z,98792.31
2019-03-11T03:15:04.927Z,98799.47
2019-03-11T03:17:38.705Z,98790.66
2019-03-11T03:20:11.907Z,98806.13
2019-03-11T03:22:45.417Z,98801.42
2019-03-11T03:25:32.866Z,98791.49
2019-03-11T03:27:54.803Z,98806.48
2019-03-11T03:30:28.955Z,98855.64
2019-03-11T03:33:01.722Z,98802.28
2019-03-11T03:35:35.270Z,98801.29
2019-03-11T03:38:08.772Z,98804.33
2019-03-11T03:40:42.971Z,98802.31
2019-03-11T03:43:16.356Z,98798.77
2019-03-11T03:45:49.869Z,98803.66
2019-03-11T03:48:23.856Z,98804.56
2019-03-11T03:50:57.691Z,98797.33
2019-03-11T03:53:31.186Z,98820.25
2019-03-11T03:56:04.383Z,98819.69
2019-03-11T03:58:38.305Z,98827.00
2019-03-11T04:01:12.313Z,98835.41
2019-03-11T04:03:46.318Z,98832.14
2019-03-11T04:06:19.924Z,98823.16
2019-03-11T04:08:53.809Z,98828.53
2019-03-11T04:11:27.742Z,98820.38
2019-03-11T04:14:01.767Z,98846.53
2019-03-11T04:16:35.631Z,98836.94
2019-03-11T04:19:09.578Z,98832.00
2019-03-11T04:21:43.079Z,98832.66
2019-03-11T04:24:16.987Z,98812.47
2019-03-11T04:26:56.458Z,98843.48
2019-03-11T04:29:30.071Z,98829.19
2019-03-11T04:32:04.013Z,98841.97
2019-03-11T04:34:37.810Z,98833.69
2019-03-11T04:37:11.021Z,98834.45
2019-03-11T04:39:45.064Z,98834.66
2019-03-11T04:42:19.493Z,98838.59
2019-03-11T04:44:53.096Z,98841.16
2019-03-11T04:47:27.286Z,98851.86
2019-03-11T04:50:00.895Z,98836.99
2019-03-11T04:52:34.742Z,98836.10
2019-03-11T04:55:07.869Z,98838.88
2019-03-11T04:57:46.610Z,98846.98
2019-03-11T05:00:22.174Z,98849.09
2019-03-11T05:02:56.247Z,98865.09
2019-03-11T05:05:30.248Z,98858.18
2019-03-11T05:08:03.426Z,98875.81
2019-03-11T05:10:37.464Z,98859.59
2019-03-11T05:13:10.400Z,98847.30
2019-03-11T05:15:44.360Z,98856.07
2019-03-11T05:18:18.283Z,98854.52
2019-03-11T05:20:51.652Z,98900.97
2019-03-11T05:23:25.164Z,98876.66
2019-03-11T05:25:59.185Z,98873.91
2019-03-11T05:28:33.195Z,98869.95
2019-03-11T05:31:06.868Z,98867.42
2019-03-11T05:33:40.391Z,98891.91
2019-03-11T05:36:14.060Z,98888.10
2019-03-11T05:38:47.086Z,98891.61
2019-03-11T05:41:21.085Z,98887.09
2019-03-11T05:43:54.220Z,98907.88
2019-03-11T05:46:28.203Z,98898.81
2019-03-11T05:49:01.679Z,98902.63
2019-03-11T05:51:35.369Z,98900.90
2019-03-11T05:54:08.884Z,98893.68
2019-03-11T05:56:42.071Z,98897.61
2019-03-11T05:59:16.017Z,98886.57
2019-03-11T06:01:51.423Z,98893.17
2019-03-11T06:04:25.865Z,98889.84
2019-03-11T06:06:59.772Z,98891.11
2019-03-11T06:09:33.458Z,98896.32
2019-03-11T06:12:07.895Z,98898.84
2019-03-11T06:14:41.768Z,98904.17
2019-03-11T06:17:15.802Z,98894.92
2019-03-11T06:19:51.102Z,98893.27
2019-03-11T06:22:27.240Z,98899.62
2019-03-11T06:25:00.871Z,98905.89
2019-03-11T06:27:34.962Z,98914.70
2019-03-11T06:30:08.990Z,98910.39
2019-03-11T06:32:42.552Z,98925.35
2019-03-11T06:35:16.117Z,98916.02
2019-03-11T06:37:50.159Z,98906.13
2019-03-11T06:40:23.761Z,98910.56
2019-03-11T06:42:57.775Z,98910.23
2019-03-11T06:45:31.359Z,98917.09
2019-03-11T06:48:05.548Z,98922.42
2019-03-11T06:50:39.282Z,98934.11
2019-03-11T06:53:13.296Z,98930.73
2019-03-11T06:55:47.318Z,98932.59
2019-03-11T06:58:21.072Z,98941.58
2019-03-11T07:00:55.035Z,98937.80
2019-03-11T07:03:28.532Z,98951.59
2019-03-11T07:06:02.154Z,98957.25
2019-03-11T07:08:35.732Z,98965.70
2019-03-11T07:11:10.337Z,98946.85
2019-03-11T07:13:44.469Z,98948.24
2019-03-11T07:16:18.383Z,98953.38
2019-03-11T07:18:51.828Z,98965.94
2019-03-11T07:21:25.586Z,98970.27
2019-03-11T07:24:00.324Z,98987.05
2019-03-11T07:26:34.209Z,98978.32
2019-03-11T07:29:07.785Z,98976.99
2019-03-11T07:31:40.975Z,98965.55
2019-03-11T07:34:15.007Z,98971.83
2019-03-11T07:36:48.533Z,98977.16
2019-03-11T07:39:22.541Z,98965.73
2019-03-11T07:41:56.451Z,98972.52
2019-03-11T07:44:30.646Z,98979.91
2019-03-11T07:47:05.231Z,98981.81
2019-03-11T07:49:38.631Z,98973.56
2019-03-11T07:52:12.548Z,98984.72
2019-03-11T07:54:46.975Z,98994.31
2019-03-11T07:57:21.009Z,98984.14
2019-03-11T07:59:54.263Z,98978.78
2019-03-11T08:02:28.601Z,98972.48
2019-03-11T08:05:07.830Z,98969.81
2019-03-11T08:07:41.938Z,98972.95
2019-03-11T08:10:15.137Z,98969.61
2019-03-11T08:12:49.350Z,98970.84
2019-03-11T08:15:23.327Z,98967.05
2019-03-11T08:17:57.418Z,98974.44
2019-03-11T08:20:30.272Z,98975.70
2019-03-11T08:23:04.274Z,98971.17
2019-03-11T08:25:37.993Z,98976.88
2019-03-11T08:28:12.080Z,98971.23
2019-03-11T08:30:46.323Z,98981.60
2019-03-11T08:33:20.127Z,98975.83
2019-03-11T08:35:52.678Z,98980.02
2019-03-11T08:38:26.782Z,98970.72
2019-03-11T08:41:00.651Z,98965.74
2019-03-11T08:43:34.410Z,98969.54
2019-03-11T08:46:08.363Z,98981.09
2019-03-11T08:48:42.295Z,98975.45
2019-03-11T08:51:15.495Z,98969.89
2019-03-11T08:53:49.384Z,98982.47
2019-03-11T08:56:22.868Z,98985.14
2019-03-11T08:58:56.335Z,98987.04
2019-03-11T09:01:30.183Z,98976.27
2019-03-11T09:04:03.826Z,98986.94
2019-03-11T09:06:37.606Z,98991.00
2019-03-11T09:09:14.195Z,98995.87
2019-03-11T09:11:47.876Z,98988.33
2019-03-11T09:14:22.167Z,98997.16
2019-03-11T09:16:56.741Z,98977.28
2019-03-11T09:19:30.259Z,98980.05
2019-03-11T09:22:03.734Z,98977.45
2019-03-11T09:24:37.494Z,98963.97
2019-03-11T09:27:10.590Z,98969.46
2019-03-11T09:29:44.035Z,98978.11
2019-03-11T09:32:19.443Z,98967.58
2019-03-11T09:34:53.641Z,98969.74
2019-03-11T09:37:27.348Z,98964.63
2019-03-11T09:40:01.446Z,98960.16
2019-03-11T09:42:34.767Z,98960.70
2019-03-11T09:45:09.390Z,98963.73
2019-03-11T09:47:43.287Z,98959.06
2019-03-11T09:50:16.572Z,98964.70
2019-03-11T09:52:50.338Z,98974.77
2019-03-11T09:55:23.808Z,98963.87
2019-03-11T09:57:57.284Z,98956.66
2019-03-11T10:00:30.107Z,98957.98
2019-03-11T10:03:04.749Z,98958.50
2019-03-11T10:05:38.807Z,98952.75
2019-03-11T10:08:12.480Z,98944.16
2019-03-11T10:10:46.424Z,98957.55
2019-03-11T10:13:20.461Z,98954.11
2019-03-11T10:15:53.960Z,98936.73
2019-03-11T10:18:27.864Z,98954.87
2019-03-11T10:21:01.444Z,98940.30
2019-03-11T10:23:35.369Z,98932.72
2019-03-11T10:26:08.854Z,98937.19
2019-03-11T10:28:42.571Z,98947.77
2019-03-11T10:31:16.595Z,98932.58
2019-03-11T10:33:50.293Z,98944.22
2019-03-11T10:36:24.107Z,98934.63
2019-03-11T10:38:57.780Z,98940.16
2019-03-11T10:41:31.375Z,98962.67
2019-03-11T10:44:04.983Z,98950.59
2019-03-11T10:46:38.476Z,98947.94
2019-03-11T10:49:12.635Z,98935.48
2019-03-11T10:51:46.332Z,98939.59
2019-03-11T10:54:19.960Z,98936.45
2019-03-11T10:56:53.926Z,98926.14
2019-03-11T10:59:27.532Z,98919.22
2019-03-11T11:02:00.713Z,98913.88
2019-03-11T11:04:34.625Z,98907.91
2019-03-11T11:07:08.114Z,98899.03
2019-03-11T11:09:41.729Z,98895.48
2019-03-11T11:12:15.593Z,98890.74
2019-03-11T11:14:49.919Z,98882.74
2019-03-11T11:17:23.972Z,98887.95
2019-03-11T11:20:03.214Z,98878.78
2019-03-11T11:22:33.047Z,98878.74
2019-03-11T11:25:07.846Z,98871.98
2019-03-11T11:27:41.777Z,98869.14
2019-03-11T11:30:21.805Z,98866.59
2019-03-11T11:32:57.150Z,98861.28
2019-03-11T11:35:31.057Z,98856.51
2019-03-11T11:38:04.974Z,98858.00
2019-03-11T11:40:38.030Z,98844.61
2019-03-11T11:43:12.066Z,98838.80
2019-03-11T11:45:45.678Z,98834.02
2019-03-11T11:48:19.332Z,98831.78
2019-03-11T11:50:53.545Z,98828.41
2019-03-11T11:53:27.236Z,98838.02
2019-03-11T11:56:01.239Z,98822.25
2019-03-11T11:58:35.011Z,98825.72
2019-03-11T12:01:08.767Z,98817.22
2019-03-11T12:03:42.882Z,98833.59
2019-03-11T12:06:16.576Z,98824.35
2019-03-11T12:08:50.653Z,98812.47
2019-03-11T12:11:24.655Z,98807.88
2019-03-11T12:13:58.774Z,98815.05
2019-03-11T12:16:32.909Z,98838.14
2019-03-11T12:19:07.019Z,98838.94
2019-03-11T12:21:40.444Z,98839.58
2019-03-11T12:24:14.223Z,98848.45
2019-03-11T12:26:48.174Z,98842.44
2019-03-11T12:29:21.330Z,98835.03
2019-03-11T12:31:55.301Z,98833.15
2019-03-11T12:34:28.547Z,98840.47
2019-03-11T12:37:02.111Z,98846.39
2019-03-11T12:39:36.244Z,98850.02
2019-03-11T12:42:09.595Z,98853.30
2019-03-11T12:44:43.114Z,98855.53
2019-03-11T12:47:17.864Z,98860.47
2019-03-11T12:49:51.497Z,98854.53
2019-03-11T12:52:25.516Z,98853.70
2019-03-11T12:54:59.697Z,98854.44
2019-03-11T12:57:33.541Z,98860.80
2019-03-11T13:00:08.182Z,98858.13
2019-03-11T13:02:41.780Z,98843.73
2019-03-11T13:05:14.641Z,98843.46
2019-03-11T13:07:49.019Z,98842.79
2019-03-11T13:10:22.702Z,98837.89
2019-03-11T13:12:56.904Z,98838.95
2019-03-11T13:15:30.678Z,98831.64
2019-03-11T13:18:47.461Z,98829.96
2019-03-11T13:21:35.119Z,98819.36
2019-03-11T13:24:09.782Z,98819.22
2019-03-11T13:26:43.471Z,98823.83
2019-03-11T13:29:17.419Z,98823.78
2019-03-11T13:31:51.695Z,98820.77
2019-03-11T13:34:26.023Z,98825.91
2019-03-11T13:36:59.762Z,98826.39
2019-03-11T13:39:34.030Z,98836.55
2019-03-11T13:42:07.842Z,98862.34
2019-03-11T13:44:41.956Z,98872.50
2019-03-11T13:47:15.728Z,98871.41
2019-03-11T13:49:49.474Z,98892.15
2019-03-11T13:52:23.032Z,98912.80
2019-03-11T13:55:09.339Z,98929.08
2019-03-11T13:57:32.828Z,98951.30
2019-03-11T14:00:05.562Z,98959.63
2019-03-11T14:02:39.462Z,98944.55
2019-03-11T14:05:12.679Z,98948.66
2019-03-11T14:07:46.893Z,98960.00
2019-03-11T14:10:20.891Z,98963.44
2019-03-11T14:12:54.499Z,98952.62
2019-03-11T14:15:27.985Z,98956.24
2019-03-11T14:18:01.501Z,98941.20
2019-03-11T14:20:35.617Z,98958.53
2019-03-11T14:23:08.713Z,98952.86
2019-03-11T14:25:42.914Z,98962.66
2019-03-11T14:28:16.937Z,98956.50
2019-03-11T14:30:51.067Z,98949.53
2019-03-11T14:33:25.333Z,98954.12
2019-03-11T14:35:59.182Z,98954.95
2019-03-11T14:38:32.810Z,98955.69
2019-03-11T14:41:06.742Z,98956.26
2019-03-11T14:43:42.131Z,98964.67
2019-03-11T14:46:16.121Z,98963.45
2019-03-11T14:48:50.227Z,98965.83
2019-03-11T14:51:24.060Z,98959.01
2019-03-11T14:53:58.635Z,98956.70
2019-03-11T14:56:32.811Z,98962.48
2019-03-11T14:59:06.149Z,98957.69
2019-03-11T15:01:39.887Z,98955.70
2019-03-11T15:04:13.641Z,98961.40
2019-03-11T15:06:47.427Z,98963.67
2019-03-11T15:09:21.216Z,98957.10
2019-03-11T15:11:55.666Z,98955.13
2019-03-11T15:14:29.897Z,98953.34
2019-03-11T15:17:04.008Z,98960.94
2019-03-11T15:19:37.888Z,98959.97
2019-03-11T15:22:11.250Z,98951.12
2019-03-11T15:24:44.707Z,98945.39
2019-03-11T15:27:18.747Z,98951.26
2019-03-11T15:29:51.905Z,98955.73
2019-03-11T15:32:26.152Z,98947.38
2019-03-11T15:35:00.365Z,98939.91
2019-03-11T15:37:33.921Z,98939.92
2019-03-11T15:40:07.036Z,98943.13
2019-03-11T15:42:41.422Z,98937.86
2019-03-11T15:45:16.181Z,98938.52
2019-03-11T15:47:50.534Z,98935.20
2019-03-11T15:50:26.636Z,98943.11
2019-03-11T15:53:00.600Z,98937.12
2019-03-11T15:55:34.749Z,98936.20
2019-03-11T15:58:08.508Z,98938.19
2019-03-11T16:00:42.037Z,98934.47
2019-03-11T16:03:16.172Z,98935.88
2019-03-11T16:05:50.166Z,98940.31
2019-03-11T16:08:23.711Z,98954.45
2019-03-11T16:10:57.351Z,98952.31
2019-03-11T16:13:30.849Z,98960.33
2019-03-11T16:16:04.108Z,98962.88
2019-03-11T16:18:38.328Z,98980.77
2019-03-11T16:21:12.390Z,98991.40
2019-03-11T16:23:45.900Z,98991.48
2019-03-11T16:26:19.402Z,98990.06
2019-03-11T16:28:53.501Z,98998.61
2019-03-11T16:31:27.408Z,98997.57
2019-03-11T16:34:01.017Z,98999.63
2019-03-11T16:36:35.041Z,99001.58
2019-03-11T16:39:10.380Z,99017.91
2019-03-11T16:41:43.863Z,99018.56
2019-03-11T16:44:17.777Z,99024.51
2019-03-11T16:46:51.903Z,99020.42
2019-03-11T16:49:25.157Z,99027.26
2019-03-11T16:51:59.090Z,99027.89
2019-03-11T16:54:32.693Z,99034.05
2019-03-11T16:57:06.082Z,99044.77
2019-03-11T16:59:40.082Z,99064.65
2019-03-11T17:02:13.745Z,99065.98
2019-03-11T17:04:47.695Z,99066.76
2019-03-11T17:07:21.822Z,99073.56
2019-03-11T17:09:55.637Z,99086.41
2019-03-11T17:12:29.678Z,99083.27
2019-03-11T17:15:03.599Z,99085.00
2019-03-11T17:17:38.012Z,99088.84
2019-03-11T17:20:13.251Z,99095.11
2019-03-11T17:22:46.845Z,99093.81
2019-03-11T17:25:21.085Z,99100.11
2019-03-11T17:27:54.474Z,99099.84
2019-03-11T17:30:27.364Z,99102.21
2019-03-11T17:33:01.052Z,99109.14
2019-03-11T17:35:37.555Z,99103.34
2019-03-11T17:38:11.012Z,99107.31
2019-03-11T17:40:45.160Z,99108.17
2019-03-11T17:43:19.341Z,99104.39
2019-03-11T17:45:52.757Z,99103.14
2019-03-11T17:48:26.494Z,99109.61
2019-03-11T17:51:00.275Z,99114.18
2019-03-11T17:53:34.370Z,99115.67
2019-03-11T17:56:08.301Z,99117.72
2019-03-11T17:58:41.876Z,99118.95
2019-03-11T18:01:15.740Z,99124.81
2019-03-11T18:03:49.840Z,99127.73
2019-03-11T18:06:22.730Z,99128.62
2019-03-11T18:08:56.798Z,99134.19
2019-03-11T18:11:30.934Z,99141.12
2019-03-11T18:14:04.759Z,99143.56
2019-03-11T18:16:38.874Z,99149.16
2019-03-11T18:19:12.664Z,99154.81
2019-03-11T18:21:46.854Z,99158.39
2019-03-11T18:24:21.113Z,99168.06
2019-03-11T18:26:55.197Z,99174.97
2019-03-11T18:29:29.215Z,99176.21
2019-03-11T18:32:03.049Z,99186.28
2019-03-11T18:34:38.890Z,99192.25
2019-03-11T18:37:12.988Z,99196.57
2019-03-11T18:39:46.695Z,99194.24
2019-03-11T18:42:25.444Z,99200.15
2019-03-11T18:44:55.993Z,99197.36
2019-03-11T18:47:29.884Z,99203.69
2019-03-11T18:50:04.951Z,99201.13
2019-03-11T18:52:38.890Z,99208.17
2019-03-11T18:55:13.060Z,99202.22
2019-03-11T18:57:46.243Z,99203.93
2019-03-11T19:00:21.685Z,99211.88
2019-03-11T19:02:55.991Z,99213.75
2019-03-11T19:05:29.868Z,99214.69
2019-03-11T19:08:03.202Z,99234.20
2019-03-11T19:10:37.351Z,99212.47
2019-03-11T19:13:09.814Z,99212.84
2019-03-11T19:15:42.823Z,99200.77
2019-03-11T19:18:16.962Z,99204.09
2019-03-11T19:20:48.824Z,99203.76
2019-03-11T19:23:22.254Z,99201.17
2019-03-11T19:25:54.650Z,99198.97
2019-03-11T19:28:27.487Z,99196.14
2019-03-11T19:31:00.649Z,99209.66
2019-03-11T19:33:34.027Z,99205.92
2019-03-11T19:36:06.543Z,99213.52
2019-03-11T19:38:38.989Z,99206.30
2019-03-11T19:41:11.847Z,99208.79
2019-03-11T19:43:44.993Z,99212.38
2019-03-11T19:46:18.530Z,99204.65
2019-03-11T19:48:51.588Z,99206.56
2019-03-11T19:51:25.172Z,99209.11
2019-03-11T19:53:57.576Z,99220.49
2019-03-11T19:56:32.106Z,99207.73
2019-03-11T19:59:05.671Z,99215.55
2019-03-11T20:01:39.329Z,99212.82
2019-03-11T20:04:13.023Z,99210.20
2019-03-11T20:06:45.473Z,99221.56
2019-03-11T20:09:18.459Z,99225.77
2019-03-11T20:11:53.943Z,99226.55
2019-03-11T20:14:26.603Z,99227.98
2019-03-11T20:17:00.631Z,99230.80
2019-03-11T20:19:36.720Z,99232.77
2019-03-11T20:22:09.204Z,99232.13
2019-03-11T20:24:41.855Z,99233.13
2019-03-11T20:27:15.337Z,99234.67
2019-03-11T20:29:48.919Z,99241.30
2019-03-11T20:32:25.943Z,99244.73
2019-03-11T20:34:58.777Z,99243.31
2019-03-11T20:37:31.440Z,99234.21
2019-03-11T20:40:03.392Z,99241.55
2019-03-11T20:42:36.316Z,99245.52
2019-03-11T20:45:10.026Z,99249.23
2019-03-11T20:47:42.606Z,99254.50
2019-03-11T20:50:15.236Z,99248.20
2019-03-11T20:52:47.868Z,99252.59
2019-03-11T20:55:20.909Z,99254.14
2019-03-11T20:57:54.456Z,99248.69
2019-03-11T21:00:26.503Z,99255.40
2019-03-11T21:03:00.190Z,99258.12
2019-03-11T21:05:35.374Z,99254.20
2019-03-11T21:08:07.947Z,99261.09
2019-03-11T21:10:41.725Z,99268.35
2019-03-11T21:13:16.125Z,99267.20
2019-03-11T21:15:49.178Z,99264.77
2019-03-11T21:18:21.686Z,99263.02
2019-03-11T21:21:03.958Z,99265.95
2019-03-11T21:23:29.243Z,99266.19
2019-03-11T21:26:02.185Z,99268.35
2019-03-11T21:28:35.943Z,99266.72
2019-03-11T21:31:10.138Z,99276.55
2019-03-11T21:33:57.550Z,99281.03
2019-03-11T21:36:20.267Z,99274.76
2019-03-11T21:38:54.691Z,99283.44
2019-03-11T21:41:28.526Z,99285.48
2019-03-11T21:44:02.043Z,99282.70
2019-03-11T21:46:35.746Z,99286.27
2019-03-11T21:49:09.447Z,99286.27
2019-03-11T21:51:43.157Z,99284.69
2019-03-11T21:54:17.268Z,99291.67
2019-03-11T21:56:51.250Z,99290.11
2019-03-11T21:59:25.268Z,99297.56
2019-03-11T22:01:59.666Z,99297.69
2019-03-11T22:04:33.296Z,99302.94
2019-03-11T22:07:07.995Z,99300.98
2019-03-11T22:09:42.242Z,99298.80
2019-03-11T22:12:16.362Z,99309.89
2019-03-11T22:14:49.613Z,99308.78
2019-03-11T22:17:23.477Z,99312.99
2019-03-11T22:19:57.804Z,99317.38
2019-03-11T22:22:31.445Z,99317.39
2019-03-11T22:25:04.677Z,99322.97
2019-03-11T22:27:38.387Z,99329.94
2019-03-11T22:30:17.396Z,99335.88
2019-03-11T22:32:51.215Z,99336.39
2019-03-11T22:35:24.975Z,99342.81
2019-03-11T22:37:59.221Z,99349.67
2019-03-11T22:40:32.471Z,99347.38
2019-03-11T22:43:06.203Z,99349.95
2019-03-11T22:45:40.445Z,99357.81
2019-03-11T22:48:14.779Z,99356.32
2019-03-11T22:50:49.484Z,99357.79
2019-03-11T22:53:22.311Z,99358.61
2019-03-11T22:55:56.381Z,99361.84
2019-03-11T22:58:30.234Z,99354.07
2019-03-11T23:01:05.759Z,99354.16
2019-03-11T23:03:39.569Z,99353.35
2019-03-11T23:06:13.759Z,99351.91
2019-03-11T23:08:48.276Z,99357.31
2019-03-11T23:11:22.298Z,99356.16
2019-03-11T23:13:56.209Z,99353.82
2019-03-11T23:16:30.363Z,99352.84
2019-03-11T23:19:04.731Z,99359.14
2019-03-11T23:21:38.804Z,99363.27
2019-03-11T23:24:13.183Z,99370.08
2019-03-11T23:26:46.802Z,99377.59
2019-03-11T23:29:20.891Z,99366.26
2019-03-11T23:31:55.102Z,99367.86
2019-03-11T23:34:29.312Z,99371.97
2019-03-11T23:37:03.429Z,99371.14
2019-03-11T23:39:37.639Z,99377.72
2019-03-11T23:42:11.864Z,99384.13
2019-03-11T23:44:45.676Z,99396.58
2019-03-11T23:47:19.905Z,99391.05
2019-03-11T23:49:53.682Z,99394.45
2019-03-11T23:52:26.981Z,99395.48
2019-03-11T23:55:01.360Z,99398.66
2019-03-11T23:57:35.424Z,99410.26
